sensor_id;sensor_type;location;lat;lon;timestamp;P1;durP1;ratioP1;P2;durP2;ratioP2
20336;SDS011;10326;53.660;10.200;2023-04-20T00:00:26;2.25;;;1.40;;
20336;SDS011;10326;53.660;10.200;2023-04-20T00:02:53;4.38;;;2.00;;
20336;SDS011;10326;53.660;10.200;2023-04-20T00:05:21;3.53;;;1.77;;
20336;SDS011;10326;53.660;10.200;2023-04-20T00:07:48;2.83;;;1.80;;
20336;SDS011;10326;53.660;10.200;2023-04-20T00:10:16;3.40;;;1.90;;
20336;SDS011;10326;53.660;10.200;2023-04-20T00:12:43;2.35;;;1.63;;
20336;SDS011;10326;53.660;10.200;2023-04-20T00:15:10;1.60;;;1.40;;
20336;SDS011;10326;53.660;10.200;2023-04-20T00:17:37;3.15;;;2.00;;
20336;SDS011;10326;53.660;10.200;2023-04-20T00:20:05;2.35;;;1.73;;
20336;SDS011;10326;53.660;10.200;2023-04-20T00:22:33;3.78;;;1.60;;
20336;SDS011;10326;53.660;10.200;2023-04-20T00:25:01;3.90;;;1.58;;
20336;SDS011;10326;53.660;10.200;2023-04-20T00:27:29;2.95;;;1.70;;
20336;SDS011;10326;53.660;10.200;2023-04-20T00:29:56;5.43;;;2.05;;
20336;SDS011;10326;53.660;10.200;2023-04-20T00:32:23;4.55;;;2.00;;
20336;SDS011;10326;53.660;10.200;2023-04-20T00:34:52;3.20;;;2.00;;
20336;SDS011;10326;53.660;10.200;2023-04-20T00:37:19;2.80;;;2.10;;
20336;SDS011;10326;53.660;10.200;2023-04-20T00:39:46;5.55;;;1.95;;
20336;SDS011;10326;53.660;10.200;2023-04-20T00:42:13;2.67;;;1.65;;
20336;SDS011;10326;53.660;10.200;2023-04-20T00:44:41;4.82;;;1.83;;
20336;SDS011;10326;53.660;10.200;2023-04-20T00:47:08;2.83;;;1.85;;
20336;SDS011;10326;53.660;10.200;2023-04-20T00:49:35;3.22;;;1.80;;
20336;SDS011;10326;53.660;10.200;2023-04-20T00:52:03;2.40;;;1.95;;
20336;SDS011;10326;53.660;10.200;2023-04-20T00:54:31;2.80;;;1.90;;
20336;SDS011;10326;53.660;10.200;2023-04-20T00:56:58;3.92;;;1.90;;
20336;SDS011;10326;53.660;10.200;2023-04-20T00:59:26;3.15;;;2.00;;
20336;SDS011;10326;53.660;10.200;2023-04-20T01:01:55;3.38;;;2.10;;
20336;SDS011;10326;53.660;10.200;2023-04-20T01:04:22;4.35;;;2.22;;
20336;SDS011;10326;53.660;10.200;2023-04-20T01:06:50;5.50;;;1.92;;
20336;SDS011;10326;53.660;10.200;2023-04-20T01:09:17;5.15;;;2.30;;
20336;SDS011;10326;53.660;10.200;2023-04-20T01:11:44;3.60;;;2.00;;
20336;SDS011;10326;53.660;10.200;2023-04-20T01:14:14;3.70;;;2.08;;
20336;SDS011;10326;53.660;10.200;2023-04-20T01:16:41;4.15;;;2.05;;
20336;SDS011;10326;53.660;10.200;2023-04-20T01:19:12;3.25;;;1.85;;
20336;SDS011;10326;53.660;10.200;2023-04-20T01:21:39;2.85;;;2.05;;
20336;SDS011;10326;53.660;10.200;2023-04-20T01:24:08;3.25;;;2.03;;
20336;SDS011;10326;53.660;10.200;2023-04-20T01:26:35;4.07;;;2.00;;
20336;SDS011;10326;53.660;10.200;2023-04-20T01:29:02;4.03;;;2.00;;
20336;SDS011;10326;53.660;10.200;2023-04-20T01:31:29;4.03;;;1.95;;
20336;SDS011;10326;53.660;10.200;2023-04-20T01:33:57;3.75;;;1.70;;
20336;SDS011;10326;53.660;10.200;2023-04-20T01:36:24;4.32;;;1.90;;
20336;SDS011;10326;53.660;10.200;2023-04-20T01:38:51;3.83;;;2.20;;
20336;SDS011;10326;53.660;10.200;2023-04-20T01:41:20;3.40;;;2.10;;
20336;SDS011;10326;53.660;10.200;2023-04-20T01:43:47;5.05;;;2.17;;
20336;SDS011;10326;53.660;10.200;2023-04-20T01:46:14;3.67;;;2.50;;
20336;SDS011;10326;53.660;10.200;2023-04-20T01:48:41;3.55;;;2.33;;
20336;SDS011;10326;53.660;10.200;2023-04-20T01:51:08;4.05;;;2.10;;
20336;SDS011;10326;53.660;10.200;2023-04-20T01:53:35;3.42;;;2.17;;
20336;SDS011;10326;53.660;10.200;2023-04-20T01:56:02;3.90;;;2.13;;
20336;SDS011;10326;53.660;10.200;2023-04-20T01:58:31;5.95;;;2.47;;
20336;SDS011;10326;53.660;10.200;2023-04-20T02:00:59;3.00;;;2.25;;
20336;SDS011;10326;53.660;10.200;2023-04-20T02:03:26;3.30;;;2.15;;
20336;SDS011;10326;53.660;10.200;2023-04-20T02:05:53;4.65;;;2.42;;
20336;SDS011;10326;53.660;10.200;2023-04-20T02:08:20;6.65;;;2.00;;
20336;SDS011;10326;53.660;10.200;2023-04-20T02:10:47;2.88;;;2.17;;
20336;SDS011;10326;53.660;10.200;2023-04-20T02:13:14;4.70;;;2.50;;
20336;SDS011;10326;53.660;10.200;2023-04-20T02:15:45;4.18;;;2.35;;
20336;SDS011;10326;53.660;10.200;2023-04-20T02:18:12;5.80;;;2.85;;
20336;SDS011;10326;53.660;10.200;2023-04-20T02:20:39;4.68;;;2.42;;
20336;SDS011;10326;53.660;10.200;2023-04-20T02:23:06;4.55;;;2.58;;
20336;SDS011;10326;53.660;10.200;2023-04-20T02:25:34;4.28;;;2.47;;
20336;SDS011;10326;53.660;10.200;2023-04-20T02:28:02;4.45;;;2.33;;
20336;SDS011;10326;53.660;10.200;2023-04-20T02:30:30;3.72;;;2.40;;
20336;SDS011;10326;53.660;10.200;2023-04-20T02:32:59;6.07;;;2.50;;
20336;SDS011;10326;53.660;10.200;2023-04-20T02:35:26;4.35;;;2.60;;
20336;SDS011;10326;53.660;10.200;2023-04-20T02:37:52;6.22;;;2.58;;
20336;SDS011;10326;53.660;10.200;2023-04-20T02:40:19;3.20;;;2.42;;
20336;SDS011;10326;53.660;10.200;2023-04-20T02:42:46;4.47;;;2.65;;
20336;SDS011;10326;53.660;10.200;2023-04-20T02:45:13;4.90;;;2.70;;
20336;SDS011;10326;53.660;10.200;2023-04-20T02:47:43;5.70;;;2.63;;
20336;SDS011;10326;53.660;10.200;2023-04-20T02:50:14;4.72;;;2.63;;
20336;SDS011;10326;53.660;10.200;2023-04-20T02:53:00;5.03;;;2.80;;
20336;SDS011;10326;53.660;10.200;2023-04-20T02:55:31;3.40;;;2.17;;
20336;SDS011;10326;53.660;10.200;2023-04-20T02:58:02;4.85;;;2.55;;
20336;SDS011;10326;53.660;10.200;2023-04-20T03:00:50;4.63;;;2.50;;
20336;SDS011;10326;53.660;10.200;2023-04-20T03:03:17;4.20;;;2.28;;
20336;SDS011;10326;53.660;10.200;2023-04-20T03:05:46;8.13;;;2.90;;
20336;SDS011;10326;53.660;10.200;2023-04-20T03:08:14;3.83;;;2.42;;
20336;SDS011;10326;53.660;10.200;2023-04-20T03:10:43;5.32;;;2.83;;
20336;SDS011;10326;53.660;10.200;2023-04-20T03:13:17;5.85;;;2.45;;
20336;SDS011;10326;53.660;10.200;2023-04-20T03:15:57;4.65;;;2.60;;
20336;SDS011;10326;53.660;10.200;2023-04-20T03:18:36;5.00;;;2.70;;
20336;SDS011;10326;53.660;10.200;2023-04-20T03:21:05;5.10;;;3.22;;
20336;SDS011;10326;53.660;10.200;2023-04-20T03:23:32;6.47;;;3.38;;
20336;SDS011;10326;53.660;10.200;2023-04-20T03:26:01;4.13;;;2.67;;
20336;SDS011;10326;53.660;10.200;2023-04-20T03:28:41;5.78;;;3.20;;
20336;SDS011;10326;53.660;10.200;2023-04-20T03:31:12;3.97;;;2.67;;
20336;SDS011;10326;53.660;10.200;2023-04-20T03:33:39;4.68;;;2.65;;
20336;SDS011;10326;53.660;10.200;2023-04-20T03:36:07;4.60;;;2.70;;
20336;SDS011;10326;53.660;10.200;2023-04-20T03:38:36;5.30;;;2.40;;
20336;SDS011;10326;53.660;10.200;2023-04-20T03:41:03;6.35;;;3.00;;
20336;SDS011;10326;53.660;10.200;2023-04-20T03:43:32;4.68;;;2.67;;
20336;SDS011;10326;53.660;10.200;2023-04-20T03:46:00;4.28;;;2.65;;
20336;SDS011;10326;53.660;10.200;2023-04-20T03:48:27;5.35;;;2.90;;
20336;SDS011;10326;53.660;10.200;2023-04-20T03:50:54;5.95;;;2.80;;
20336;SDS011;10326;53.660;10.200;2023-04-20T03:53:22;3.70;;;2.60;;
20336;SDS011;10326;53.660;10.200;2023-04-20T03:55:49;6.07;;;3.22;;
20336;SDS011;10326;53.660;10.200;2023-04-20T03:58:19;8.10;;;3.40;;
20336;SDS011;10326;53.660;10.200;2023-04-20T04:01:12;5.30;;;3.13;;
20336;SDS011;10326;53.660;10.200;2023-04-20T04:03:44;5.60;;;2.85;;
20336;SDS011;10326;53.660;10.200;2023-04-20T04:06:11;3.75;;;2.65;;
20336;SDS011;10326;53.660;10.200;2023-04-20T04:08:40;5.32;;;3.08;;
20336;SDS011;10326;53.660;10.200;2023-04-20T04:11:07;6.68;;;3.10;;
20336;SDS011;10326;53.660;10.200;2023-04-20T04:13:34;5.28;;;3.22;;
20336;SDS011;10326;53.660;10.200;2023-04-20T04:16:04;6.07;;;2.92;;
20336;SDS011;10326;53.660;10.200;2023-04-20T04:18:31;5.78;;;3.13;;
20336;SDS011;10326;53.660;10.200;2023-04-20T04:21:04;5.53;;;3.10;;
20336;SDS011;10326;53.660;10.200;2023-04-20T04:23:34;6.10;;;3.40;;
20336;SDS011;10326;53.660;10.200;2023-04-20T04:26:17;5.13;;;3.13;;
20336;SDS011;10326;53.660;10.200;2023-04-20T04:28:50;5.93;;;3.50;;
20336;SDS011;10326;53.660;10.200;2023-04-20T04:31:20;6.03;;;2.95;;
20336;SDS011;10326;53.660;10.200;2023-04-20T04:33:48;5.85;;;2.97;;
20336;SDS011;10326;53.660;10.200;2023-04-20T04:36:25;6.45;;;3.00;;
20336;SDS011;10326;53.660;10.200;2023-04-20T04:38:53;5.68;;;3.40;;
20336;SDS011;10326;53.660;10.200;2023-04-20T04:41:21;8.05;;;3.88;;
20336;SDS011;10326;53.660;10.200;2023-04-20T04:43:50;8.40;;;3.42;;
20336;SDS011;10326;53.660;10.200;2023-04-20T04:46:25;8.32;;;3.58;;
20336;SDS011;10326;53.660;10.200;2023-04-20T04:48:55;7.13;;;3.65;;
20336;SDS011;10326;53.660;10.200;2023-04-20T04:51:24;7.93;;;3.83;;
20336;SDS011;10326;53.660;10.200;2023-04-20T04:53:51;7.65;;;4.00;;
20336;SDS011;10326;53.660;10.200;2023-04-20T04:56:20;5.93;;;3.60;;
20336;SDS011;10326;53.660;10.200;2023-04-20T04:58:48;6.90;;;3.60;;
20336;SDS011;10326;53.660;10.200;2023-04-20T05:01:15;7.10;;;3.63;;
20336;SDS011;10326;53.660;10.200;2023-04-20T05:03:42;6.93;;;3.97;;
20336;SDS011;10326;53.660;10.200;2023-04-20T05:06:09;6.03;;;3.50;;
20336;SDS011;10326;53.660;10.200;2023-04-20T05:08:36;7.07;;;3.65;;
20336;SDS011;10326;53.660;10.200;2023-04-20T05:11:03;7.60;;;3.78;;
20336;SDS011;10326;53.660;10.200;2023-04-20T05:13:31;5.70;;;3.65;;
20336;SDS011;10326;53.660;10.200;2023-04-20T05:15:58;6.88;;;3.67;;
20336;SDS011;10326;53.660;10.200;2023-04-20T05:18:25;5.88;;;3.55;;
20336;SDS011;10326;53.660;10.200;2023-04-20T05:20:52;5.75;;;3.60;;
20336;SDS011;10326;53.660;10.200;2023-04-20T05:23:19;7.18;;;4.10;;
20336;SDS011;10326;53.660;10.200;2023-04-20T05:25:46;7.90;;;4.20;;
20336;SDS011;10326;53.660;10.200;2023-04-20T05:28:13;6.03;;;4.00;;
20336;SDS011;10326;53.660;10.200;2023-04-20T05:30:41;8.63;;;4.00;;
20336;SDS011;10326;53.660;10.200;2023-04-20T05:33:08;9.40;;;4.18;;
20336;SDS011;10326;53.660;10.200;2023-04-20T05:35:35;9.27;;;4.43;;
20336;SDS011;10326;53.660;10.200;2023-04-20T05:38:04;9.00;;;4.40;;
20336;SDS011;10326;53.660;10.200;2023-04-20T05:40:31;6.97;;;4.30;;
20336;SDS011;10326;53.660;10.200;2023-04-20T05:42:58;6.22;;;3.90;;
20336;SDS011;10326;53.660;10.200;2023-04-20T05:45:26;5.47;;;3.92;;
20336;SDS011;10326;53.660;10.200;2023-04-20T05:47:54;8.95;;;4.60;;
20336;SDS011;10326;53.660;10.200;2023-04-20T05:50:22;4.68;;;3.53;;
20336;SDS011;10326;53.660;10.200;2023-04-20T05:52:49;6.25;;;3.95;;
20336;SDS011;10326;53.660;10.200;2023-04-20T05:55:17;7.20;;;3.58;;
20336;SDS011;10326;53.660;10.200;2023-04-20T05:57:44;7.18;;;3.70;;
20336;SDS011;10326;53.660;10.200;2023-04-20T06:00:12;8.68;;;4.28;;
20336;SDS011;10326;53.660;10.200;2023-04-20T06:02:40;6.15;;;3.83;;
20336;SDS011;10326;53.660;10.200;2023-04-20T06:05:09;7.88;;;3.95;;
20336;SDS011;10326;53.660;10.200;2023-04-20T06:07:36;7.05;;;3.67;;
20336;SDS011;10326;53.660;10.200;2023-04-20T06:10:05;7.32;;;3.78;;
20336;SDS011;10326;53.660;10.200;2023-04-20T06:12:33;5.78;;;3.90;;
20336;SDS011;10326;53.660;10.200;2023-04-20T06:15:00;6.45;;;4.20;;
20336;SDS011;10326;53.660;10.200;2023-04-20T06:17:28;8.05;;;4.50;;
20336;SDS011;10326;53.660;10.200;2023-04-20T06:19:55;5.95;;;3.70;;
20336;SDS011;10326;53.660;10.200;2023-04-20T06:22:24;7.32;;;4.20;;
20336;SDS011;10326;53.660;10.200;2023-04-20T06:24:50;9.27;;;4.20;;
20336;SDS011;10326;53.660;10.200;2023-04-20T06:27:18;7.65;;;4.20;;
20336;SDS011;10326;53.660;10.200;2023-04-20T06:29:45;6.60;;;3.65;;
20336;SDS011;10326;53.660;10.200;2023-04-20T06:32:12;8.95;;;4.40;;
20336;SDS011;10326;53.660;10.200;2023-04-20T06:34:39;5.50;;;3.80;;
20336;SDS011;10326;53.660;10.200;2023-04-20T06:37:06;6.70;;;4.10;;
20336;SDS011;10326;53.660;10.200;2023-04-20T06:39:34;6.50;;;4.18;;
20336;SDS011;10326;53.660;10.200;2023-04-20T06:42:01;9.65;;;4.57;;
20336;SDS011;10326;53.660;10.200;2023-04-20T06:44:28;8.10;;;4.13;;
20336;SDS011;10326;53.660;10.200;2023-04-20T06:46:55;9.55;;;4.30;;
20336;SDS011;10326;53.660;10.200;2023-04-20T06:49:22;6.72;;;3.70;;
20336;SDS011;10326;53.660;10.200;2023-04-20T06:51:49;9.55;;;4.63;;
20336;SDS011;10326;53.660;10.200;2023-04-20T06:54:16;6.43;;;4.28;;
20336;SDS011;10326;53.660;10.200;2023-04-20T06:56:44;8.20;;;4.65;;
20336;SDS011;10326;53.660;10.200;2023-04-20T06:59:11;8.75;;;4.57;;
20336;SDS011;10326;53.660;10.200;2023-04-20T07:01:40;6.97;;;4.07;;
20336;SDS011;10326;53.660;10.200;2023-04-20T07:04:07;6.80;;;3.97;;
20336;SDS011;10326;53.660;10.200;2023-04-20T07:06:34;8.02;;;4.50;;
20336;SDS011;10326;53.660;10.200;2023-04-20T07:09:01;7.40;;;4.32;;
20336;SDS011;10326;53.660;10.200;2023-04-20T07:11:29;7.30;;;4.22;;
20336;SDS011;10326;53.660;10.200;2023-04-20T07:13:57;7.63;;;4.50;;
20336;SDS011;10326;53.660;10.200;2023-04-20T07:16:24;6.63;;;4.40;;
20336;SDS011;10326;53.660;10.200;2023-04-20T07:18:51;8.10;;;4.47;;
20336;SDS011;10326;53.660;10.200;2023-04-20T07:21:17;7.97;;;4.90;;
20336;SDS011;10326;53.660;10.200;2023-04-20T07:23:44;7.72;;;4.03;;
20336;SDS011;10326;53.660;10.200;2023-04-20T07:26:12;8.40;;;4.10;;
20336;SDS011;10326;53.660;10.200;2023-04-20T07:28:39;8.77;;;4.63;;
20336;SDS011;10326;53.660;10.200;2023-04-20T07:31:07;8.73;;;5.38;;
20336;SDS011;10326;53.660;10.200;2023-04-20T07:33:34;6.15;;;4.28;;
20336;SDS011;10326;53.660;10.200;2023-04-20T07:36:01;5.57;;;3.95;;
20336;SDS011;10326;53.660;10.200;2023-04-20T07:38:30;7.35;;;4.20;;
20336;SDS011;10326;53.660;10.200;2023-04-20T07:40:57;7.20;;;4.13;;
20336;SDS011;10326;53.660;10.200;2023-04-20T07:43:23;6.65;;;4.07;;
20336;SDS011;10326;53.660;10.200;2023-04-20T07:45:50;7.72;;;4.70;;
20336;SDS011;10326;53.660;10.200;2023-04-20T07:48:18;7.90;;;4.20;;
20336;SDS011;10326;53.660;10.200;2023-04-20T07:50:45;6.15;;;4.03;;
20336;SDS011;10326;53.660;10.200;2023-04-20T07:53:12;8.95;;;4.38;;
20336;SDS011;10326;53.660;10.200;2023-04-20T07:55:39;6.32;;;4.43;;
20336;SDS011;10326;53.660;10.200;2023-04-20T07:58:06;7.88;;;4.30;;
20336;SDS011;10326;53.660;10.200;2023-04-20T08:00:33;7.43;;;4.20;;
20336;SDS011;10326;53.660;10.200;2023-04-20T08:02:59;8.20;;;4.65;;
20336;SDS011;10326;53.660;10.200;2023-04-20T08:05:28;8.15;;;4.80;;
20336;SDS011;10326;53.660;10.200;2023-04-20T08:07:54;7.40;;;4.82;;
20336;SDS011;10326;53.660;10.200;2023-04-20T08:10:22;10.07;;;4.60;;
20336;SDS011;10326;53.660;10.200;2023-04-20T08:12:49;10.18;;;4.35;;
20336;SDS011;10326;53.660;10.200;2023-04-20T08:15:17;8.07;;;4.47;;
20336;SDS011;10326;53.660;10.200;2023-04-20T08:17:44;9.27;;;4.88;;
20336;SDS011;10326;53.660;10.200;2023-04-20T08:20:11;7.95;;;4.43;;
20336;SDS011;10326;53.660;10.200;2023-04-20T08:22:39;8.20;;;4.53;;
20336;SDS011;10326;53.660;10.200;2023-04-20T08:25:07;8.90;;;4.35;;
20336;SDS011;10326;53.660;10.200;2023-04-20T08:27:34;11.35;;;4.82;;
20336;SDS011;10326;53.660;10.200;2023-04-20T08:30:01;7.75;;;4.88;;
20336;SDS011;10326;53.660;10.200;2023-04-20T08:32:29;8.50;;;4.55;;
20336;SDS011;10326;53.660;10.200;2023-04-20T08:34:56;7.93;;;4.63;;
20336;SDS011;10326;53.660;10.200;2023-04-20T08:37:23;7.30;;;4.50;;
20336;SDS011;10326;53.660;10.200;2023-04-20T08:39:52;11.02;;;5.32;;
20336;SDS011;10326;53.660;10.200;2023-04-20T08:42:19;10.15;;;4.30;;
20336;SDS011;10326;53.660;10.200;2023-04-20T08:44:46;6.82;;;4.57;;
20336;SDS011;10326;53.660;10.200;2023-04-20T08:47:13;6.40;;;4.30;;
20336;SDS011;10326;53.660;10.200;2023-04-20T08:49:40;8.30;;;5.15;;
20336;SDS011;10326;53.660;10.200;2023-04-20T08:52:10;7.57;;;4.75;;
20336;SDS011;10326;53.660;10.200;2023-04-20T08:54:37;9.23;;;4.93;;
20336;SDS011;10326;53.660;10.200;2023-04-20T08:57:05;7.55;;;4.68;;
20336;SDS011;10326;53.660;10.200;2023-04-20T08:59:32;9.18;;;4.60;;
20336;SDS011;10326;53.660;10.200;2023-04-20T09:02:08;7.90;;;4.80;;
20336;SDS011;10326;53.660;10.200;2023-04-20T09:04:36;6.95;;;4.63;;
20336;SDS011;10326;53.660;10.200;2023-04-20T09:07:04;7.07;;;4.82;;
20336;SDS011;10326;53.660;10.200;2023-04-20T09:09:32;8.48;;;5.13;;
20336;SDS011;10326;53.660;10.200;2023-04-20T09:11:59;6.70;;;4.70;;
20336;SDS011;10326;53.660;10.200;2023-04-20T09:14:29;9.18;;;5.15;;
20336;SDS011;10326;53.660;10.200;2023-04-20T09:17:07;8.57;;;4.70;;
20336;SDS011;10326;53.660;10.200;2023-04-20T09:19:38;7.93;;;5.00;;
20336;SDS011;10326;53.660;10.200;2023-04-20T09:22:06;7.43;;;4.43;;
20336;SDS011;10326;53.660;10.200;2023-04-20T09:24:33;8.75;;;5.05;;
20336;SDS011;10326;53.660;10.200;2023-04-20T09:27:12;6.95;;;4.82;;
20336;SDS011;10326;53.660;10.200;2023-04-20T09:29:42;7.20;;;5.15;;
20336;SDS011;10326;53.660;10.200;2023-04-20T09:32:18;8.95;;;5.13;;
20336;SDS011;10326;53.660;10.200;2023-04-20T09:34:48;8.48;;;5.47;;
20336;SDS011;10326;53.660;10.200;2023-04-20T09:37:15;8.32;;;5.30;;
20336;SDS011;10326;53.660;10.200;2023-04-20T09:39:42;7.55;;;4.85;;
20336;SDS011;10326;53.660;10.200;2023-04-20T09:42:10;9.63;;;5.13;;
20336;SDS011;10326;53.660;10.200;2023-04-20T09:44:42;9.82;;;5.22;;
20336;SDS011;10326;53.660;10.200;2023-04-20T09:47:16;9.27;;;4.72;;
20336;SDS011;10326;53.660;10.200;2023-04-20T09:49:43;8.85;;;5.38;;
20336;SDS011;10326;53.660;10.200;2023-04-20T09:52:11;7.32;;;5.15;;
20336;SDS011;10326;53.660;10.200;2023-04-20T09:54:43;7.43;;;5.30;;
20336;SDS011;10326;53.660;10.200;2023-04-20T09:57:10;9.98;;;5.55;;
20336;SDS011;10326;53.660;10.200;2023-04-20T09:59:40;9.10;;;5.57;;
20336;SDS011;10326;53.660;10.200;2023-04-20T10:02:12;8.32;;;5.13;;
20336;SDS011;10326;53.660;10.200;2023-04-20T10:04:49;9.38;;;5.05;;
20336;SDS011;10326;53.660;10.200;2023-04-20T10:07:22;8.25;;;5.50;;
20336;SDS011;10326;53.660;10.200;2023-04-20T10:10:01;7.40;;;5.60;;
20336;SDS011;10326;53.660;10.200;2023-04-20T10:12:33;9.77;;;5.43;;
20336;SDS011;10326;53.660;10.200;2023-04-20T10:15:02;11.13;;;5.50;;
20336;SDS011;10326;53.660;10.200;2023-04-20T10:17:30;8.13;;;4.88;;
20336;SDS011;10326;53.660;10.200;2023-04-20T10:19:58;10.00;;;6.30;;
20336;SDS011;10326;53.660;10.200;2023-04-20T10:22:25;10.52;;;5.78;;
20336;SDS011;10326;53.660;10.200;2023-04-20T10:24:57;7.25;;;5.32;;
20336;SDS011;10326;53.660;10.200;2023-04-20T10:27:24;8.63;;;5.72;;
20336;SDS011;10326;53.660;10.200;2023-04-20T10:29:52;7.00;;;5.68;;
20336;SDS011;10326;53.660;10.200;2023-04-20T10:32:24;10.13;;;5.72;;
20336;SDS011;10326;53.660;10.200;2023-04-20T10:35:01;10.63;;;6.40;;
20336;SDS011;10326;53.660;10.200;2023-04-20T10:37:30;9.55;;;5.95;;
20336;SDS011;10326;53.660;10.200;2023-04-20T10:39:57;9.32;;;5.82;;
20336;SDS011;10326;53.660;10.200;2023-04-20T10:42:25;8.40;;;5.75;;
20336;SDS011;10326;53.660;10.200;2023-04-20T10:44:53;10.52;;;5.90;;
20336;SDS011;10326;53.660;10.200;2023-04-20T10:47:26;8.88;;;5.93;;
20336;SDS011;10326;53.660;10.200;2023-04-20T10:50:04;7.25;;;5.63;;
20336;SDS011;10326;53.660;10.200;2023-04-20T10:52:33;8.55;;;5.90;;
20336;SDS011;10326;53.660;10.200;2023-04-20T10:55:01;9.20;;;6.10;;
20336;SDS011;10326;53.660;10.200;2023-04-20T10:57:29;10.05;;;5.85;;
20336;SDS011;10326;53.660;10.200;2023-04-20T10:59:56;10.50;;;5.75;;
20336;SDS011;10326;53.660;10.200;2023-04-20T11:02:23;9.00;;;5.75;;
20336;SDS011;10326;53.660;10.200;2023-04-20T11:04:51;7.53;;;5.88;;
20336;SDS011;10326;53.660;10.200;2023-04-20T11:07:24;9.23;;;5.90;;
20336;SDS011;10326;53.660;10.200;2023-04-20T11:09:52;10.40;;;6.15;;
20336;SDS011;10326;53.660;10.200;2023-04-20T11:12:20;10.18;;;6.78;;
20336;SDS011;10326;53.660;10.200;2023-04-20T11:14:50;9.18;;;6.10;;
20336;SDS011;10326;53.660;10.200;2023-04-20T11:17:19;9.18;;;5.90;;
20336;SDS011;10326;53.660;10.200;2023-04-20T11:19:47;8.52;;;5.82;;
20336;SDS011;10326;53.660;10.200;2023-04-20T11:22:21;9.13;;;6.05;;
20336;SDS011;10326;53.660;10.200;2023-04-20T11:24:48;9.63;;;6.95;;
20336;SDS011;10326;53.660;10.200;2023-04-20T11:27:18;9.65;;;5.95;;
20336;SDS011;10326;53.660;10.200;2023-04-20T11:29:54;8.38;;;6.10;;
20336;SDS011;10326;53.660;10.200;2023-04-20T11:32:23;9.38;;;6.13;;
20336;SDS011;10326;53.660;10.200;2023-04-20T11:34:57;11.10;;;6.97;;
20336;SDS011;10326;53.660;10.200;2023-04-20T11:37:27;8.88;;;7.00;;
20336;SDS011;10326;53.660;10.200;2023-04-20T11:39:58;7.63;;;6.78;;
20336;SDS011;10326;53.660;10.200;2023-04-20T11:42:25;10.00;;;6.78;;
20336;SDS011;10326;53.660;10.200;2023-04-20T11:44:52;8.35;;;6.53;;
20336;SDS011;10326;53.660;10.200;2023-04-20T11:47:19;9.57;;;6.65;;
20336;SDS011;10326;53.660;10.200;2023-04-20T11:49:46;8.30;;;6.85;;
20336;SDS011;10326;53.660;10.200;2023-04-20T11:52:13;8.88;;;7.15;;
20336;SDS011;10326;53.660;10.200;2023-04-20T11:54:41;10.63;;;6.95;;
20336;SDS011;10326;53.660;10.200;2023-04-20T11:57:08;10.82;;;6.68;;
20336;SDS011;10326;53.660;10.200;2023-04-20T11:59:46;8.32;;;6.60;;
20336;SDS011;10326;53.660;10.200;2023-04-20T12:02:13;10.88;;;8.05;;
20336;SDS011;10326;53.660;10.200;2023-04-20T12:04:40;11.18;;;7.65;;
20336;SDS011;10326;53.660;10.200;2023-04-20T12:07:07;9.55;;;7.32;;
20336;SDS011;10326;53.660;10.200;2023-04-20T12:09:34;10.80;;;7.43;;
20336;SDS011;10326;53.660;10.200;2023-04-20T12:12:04;10.05;;;7.82;;
20336;SDS011;10326;53.660;10.200;2023-04-20T12:14:32;11.00;;;7.70;;
20336;SDS011;10326;53.660;10.200;2023-04-20T12:16:59;9.48;;;6.60;;
20336;SDS011;10326;53.660;10.200;2023-04-20T12:19:27;10.60;;;7.65;;
20336;SDS011;10326;53.660;10.200;2023-04-20T12:21:54;8.60;;;7.18;;
20336;SDS011;10326;53.660;10.200;2023-04-20T12:24:22;9.93;;;7.72;;
20336;SDS011;10326;53.660;10.200;2023-04-20T12:26:49;11.77;;;7.80;;
20336;SDS011;10326;53.660;10.200;2023-04-20T12:29:18;12.25;;;8.48;;
20336;SDS011;10326;53.660;10.200;2023-04-20T12:31:44;13.30;;;8.60;;
20336;SDS011;10326;53.660;10.200;2023-04-20T12:34:11;12.45;;;8.30;;
20336;SDS011;10326;53.660;10.200;2023-04-20T12:36:38;9.65;;;7.80;;
20336;SDS011;10326;53.660;10.200;2023-04-20T12:39:05;8.38;;;7.32;;
20336;SDS011;10326;53.660;10.200;2023-04-20T12:41:32;8.38;;;7.30;;
20336;SDS011;10326;53.660;10.200;2023-04-20T12:44:00;9.50;;;7.07;;
20336;SDS011;10326;53.660;10.200;2023-04-20T12:46:28;10.27;;;7.28;;
20336;SDS011;10326;53.660;10.200;2023-04-20T12:48:55;10.25;;;7.07;;
20336;SDS011;10326;53.660;10.200;2023-04-20T12:51:22;12.88;;;7.75;;
20336;SDS011;10326;53.660;10.200;2023-04-20T12:53:49;11.18;;;7.95;;
20336;SDS011;10326;53.660;10.200;2023-04-20T12:56:16;10.10;;;7.53;;
20336;SDS011;10326;53.660;10.200;2023-04-20T12:58:43;13.15;;;7.70;;
20336;SDS011;10326;53.660;10.200;2023-04-20T13:01:10;9.23;;;7.63;;
20336;SDS011;10326;53.660;10.200;2023-04-20T13:03:38;12.85;;;7.97;;
20336;SDS011;10326;53.660;10.200;2023-04-20T13:06:06;10.55;;;7.22;;
20336;SDS011;10326;53.660;10.200;2023-04-20T13:08:33;10.75;;;7.75;;
20336;SDS011;10326;53.660;10.200;2023-04-20T13:11:01;9.57;;;6.90;;
20336;SDS011;10326;53.660;10.200;2023-04-20T13:13:28;11.32;;;7.70;;
20336;SDS011;10326;53.660;10.200;2023-04-20T13:15:55;9.68;;;7.65;;
20336;SDS011;10326;53.660;10.200;2023-04-20T13:18:22;10.25;;;7.95;;
20336;SDS011;10326;53.660;10.200;2023-04-20T13:20:50;11.65;;;7.38;;
20336;SDS011;10326;53.660;10.200;2023-04-20T13:23:17;11.80;;;8.43;;
20336;SDS011;10326;53.660;10.200;2023-04-20T13:25:44;11.27;;;7.63;;
20336;SDS011;10326;53.660;10.200;2023-04-20T13:28:11;11.35;;;7.20;;
20336;SDS011;10326;53.660;10.200;2023-04-20T13:30:38;10.95;;;7.65;;
20336;SDS011;10326;53.660;10.200;2023-04-20T13:33:05;12.80;;;8.02;;
20336;SDS011;10326;53.660;10.200;2023-04-20T13:35:32;11.10;;;8.35;;
20336;SDS011;10326;53.660;10.200;2023-04-20T13:38:01;9.40;;;7.90;;
20336;SDS011;10326;53.660;10.200;2023-04-20T13:40:29;9.65;;;7.40;;
20336;SDS011;10326;53.660;10.200;2023-04-20T13:42:55;11.05;;;8.30;;
20336;SDS011;10326;53.660;10.200;2023-04-20T13:45:22;11.10;;;8.38;;
20336;SDS011;10326;53.660;10.200;2023-04-20T13:47:50;13.88;;;8.10;;
20336;SDS011;10326;53.660;10.200;2023-04-20T13:50:17;9.27;;;7.65;;
20336;SDS011;10326;53.660;10.200;2023-04-20T13:52:44;10.32;;;8.63;;
20336;SDS011;10326;53.660;10.200;2023-04-20T13:55:12;14.80;;;8.90;;
20336;SDS011;10326;53.660;10.200;2023-04-20T13:57:44;12.73;;;8.52;;
20336;SDS011;10326;53.660;10.200;2023-04-20T14:00:11;12.13;;;8.68;;
20336;SDS011;10326;53.660;10.200;2023-04-20T14:02:39;12.25;;;8.70;;
20336;SDS011;10326;53.660;10.200;2023-04-20T14:05:06;12.38;;;9.07;;
20336;SDS011;10326;53.660;10.200;2023-04-20T14:07:34;12.35;;;8.52;;
20336;SDS011;10326;53.660;10.200;2023-04-20T14:10:01;14.30;;;8.70;;
20336;SDS011;10326;53.660;10.200;2023-04-20T14:12:29;11.60;;;8.30;;
20336;SDS011;10326;53.660;10.200;2023-04-20T14:14:57;9.40;;;8.07;;
20336;SDS011;10326;53.660;10.200;2023-04-20T14:17:25;11.75;;;8.35;;
20336;SDS011;10326;53.660;10.200;2023-04-20T14:19:52;13.52;;;8.20;;
20336;SDS011;10326;53.660;10.200;2023-04-20T14:22:20;13.02;;;8.85;;
20336;SDS011;10326;53.660;10.200;2023-04-20T14:24:46;11.38;;;8.23;;
20336;SDS011;10326;53.660;10.200;2023-04-20T14:27:13;13.65;;;8.80;;
20336;SDS011;10326;53.660;10.200;2023-04-20T14:29:42;12.38;;;9.18;;
20336;SDS011;10326;53.660;10.200;2023-04-20T14:32:08;11.68;;;8.45;;
20336;SDS011;10326;53.660;10.200;2023-04-20T14:34:35;11.93;;;8.40;;
20336;SDS011;10326;53.660;10.200;2023-04-20T14:37:02;10.52;;;8.75;;